This is the latest recevied weather packets stored in our database for station/object DA2PK. If no packets are shown the sender has not sent any weather packets the latest 10 day(s).
| Time | Temp. | Humidity | Pressure | Rain* | Wind** | Luminosity | Snow |
|---|---|---|---|---|---|---|---|
| 1777400419 | 16.11° C | 37% | 1021.7 hPa | 0 mm | - | 18 W/m² | - |
| 1777398619 | 16.67° C | 34% | 1021.4 hPa | 0 mm | - | 31 W/m² | - |
| 1777394417 | 18.33° C | 34% | 1020.9 hPa | 0 mm | - | 210 W/m² | - |
| 1777392618 | 18.89° C | 33% | 1020.8 hPa | 0 mm | - | 283 W/m² | - |
| 1777392019 | 18.89° C | 33% | 1020.8 hPa | 0 mm | - | 290 W/m² | - |
| 1777390817 | 19.44° C | 34% | 1020.8 hPa | 0 mm | - | 352 W/m² | - |
| 1777384216 | 18.89° C | 35% | 1021.3 hPa | 0 mm | - | 563 W/m² | - |
| 1777383017 | 18.89° C | 35% | 1021.3 hPa | 0 mm | - | 585 W/m² | - |
| 1777378819 | 17.78° C | 36% | 1021.4 hPa | 0 mm | - | 648 W/m² | - |
| 1777374639 | 16.67° C | 42% | 1021.6 hPa | 0 mm | - | 643 W/m² | - |
| 1777372217 | 16.11° C | 46% | 1021.7 hPa | 0 mm | - | 624 W/m² | - |
| 1777371618 | 15.56° C | 48% | 1021.7 hPa | 0 mm | - | 620 W/m² | - |
| 1777369817 | 15° C | 48% | 1021.8 hPa | 0 mm | - | 584 W/m² | - |
| 1777366816 | 13.89° C | 51% | 1021.7 hPa | 0 mm | - | 496 W/m² | - |
| 1777362618 | 12.22° C | 56% | 1021.4 hPa | 0 mm | - | 351 W/m² | - |
| 1777360817 | 11.11° C | 57% | 1021.3 hPa | 0 mm | - | 209 W/m² | - |
| 1777359618 | 11.11° C | 58% | 1021.4 hPa | 0 mm | - | 160 W/m² | - |
| 1777357817 | 10.56° C | 59% | 1021.2 hPa | 0 mm | - | 162 W/m² | - |
| 1777353617 | 9.44° C | 62% | 1021.1 hPa | 0 mm | - | 57 W/m² | - |
| 1777353018 | 9.44° C | 63% | 1020.9 hPa | 0 mm | - | 39 W/m² | - |
| 1777351217 | 9.44° C | 62% | 1020.9 hPa | 0 mm | - | 12 W/m² | - |
| 1777349416 | 9.44° C | 61% | 1021 hPa | 0 mm | - | 2 W/m² | - |
| 1777346440 | 10° C | 60% | 1021.2 hPa | 0 mm | - | 0 W/m² | - |
| 1777343419 | 10.56° C | 58% | 1021.1 hPa | 0 mm | - | 0 W/m² | - |
| 1777335017 | 11.11° C | 53% | 1021.1 hPa | 0 mm | - | 0 W/m² | - |
* Rain latest hour (hover to see other rain measurements)
** Current wind speed in m/s (hover to see current wind gust speed)